YPS weather

Port Hawkesbury Airport
Port Hawkesbury, Nova Scotia, Canada

Public forecast

Using degrees Celsius for public forecast. Weather courtesy of forecast.io.

METAR (pilot weather report)

Retrieved 2019/05/21 13:13 UTC (47 minutes ago):

CYPD 211313Z AUTO 07013G18KT 2 1/4SM BR OVC003 05/04 A2956 RMK SLP014

TAF (pilot weather forecast)

Closest forecast is Sydney / J.A. Douglas McCurdy Airport, 62.9 nm (116.5 km) ENE. Retrieved 2019/05/21 12:39 UTC (1 hour ago):

TAF TAF CYQY 211138Z 2112/2124 08010KT 11/2SM -RA BR OVC004 TEMPO 2112/2122 4SM -RA -DZ BR SCT004 OVC0010 BECMG 2116/2118 09015KT FM212200 09015G25KT 3/4SM RA BR OVC003 RMK NXT FCST BY 211800Z